Morris, Illinois
Current Conditions -  °F | °C
As of 10:35 PM on Saturday 25 Oct 2014 (Local Time) from KC09 Reporting Station
Clear Clear  
Wind Chill: 40°   Ceiling: Unl
Heat Index: 45°   Visibility: 10mi
Dew Point: 37°   Wind: 8mph
Humidity: 75%   Direction: 300°WNW
Pressure: 29.99"   Gusts: NA
Location:  41.36°N, 88.42°W
Report Text: KC09 260335Z AUTO 30007KT 10SM CLR 07/03 A2999 RMK AO2 T00710030
Loading
Personal Weather Stations






























Interactive Weather Map New forecast layout! Learn more

10-Day Weather Forecast

Advertisements
Track Severe Weather on mobile